sensor_id;sensor_type;location;lat;lon;timestamp;temperature;humidity
24164;DHT22;12319;49.204;8.116;2022-10-16T00:01:17;17.70;99.90
24164;DHT22;12319;49.204;8.116;2022-10-16T00:03:44;17.80;99.90
24164;DHT22;12319;49.204;8.116;2022-10-16T00:06:10;17.80;99.90
24164;DHT22;12319;49.204;8.116;2022-10-16T00:08:37;17.80;99.90
24164;DHT22;12319;49.204;8.116;2022-10-16T00:11:15;17.70;99.90
24164;DHT22;12319;49.204;8.116;2022-10-16T00:13:43;17.80;99.90
24164;DHT22;12319;49.204;8.116;2022-10-16T00:16:09;17.80;99.90
24164;DHT22;12319;49.204;8.116;2022-10-16T00:18:36;17.80;99.90
24164;DHT22;12319;49.204;8.116;2022-10-16T00:21:07;17.80;99.90
24164;DHT22;12319;49.204;8.116;2022-10-16T00:23:34;17.70;99.90
24164;DHT22;12319;49.204;8.116;2022-10-16T00:26:02;17.70;99.90
24164;DHT22;12319;49.204;8.116;2022-10-16T00:28:28;17.70;99.90
24164;DHT22;12319;49.204;8.116;2022-10-16T00:30:54;17.70;99.90
24164;DHT22;12319;49.204;8.116;2022-10-16T00:33:20;17.70;99.90
24164;DHT22;12319;49.204;8.116;2022-10-16T00:35:45;17.60;99.90
24164;DHT22;12319;49.204;8.116;2022-10-16T00:38:11;17.50;99.90
24164;DHT22;12319;49.204;8.116;2022-10-16T00:40:37;17.60;99.90
24164;DHT22;12319;49.204;8.116;2022-10-16T00:43:02;17.50;99.90
24164;DHT22;12319;49.204;8.116;2022-10-16T00:45:30;17.50;99.90
24164;DHT22;12319;49.204;8.116;2022-10-16T00:47:56;17.40;99.90
24164;DHT22;12319;49.204;8.116;2022-10-16T00:50:27;17.40;99.90
24164;DHT22;12319;49.204;8.116;2022-10-16T00:52:54;17.40;99.90
24164;DHT22;12319;49.204;8.116;2022-10-16T00:55:20;17.40;99.90
24164;DHT22;12319;49.204;8.116;2022-10-16T00:57:47;17.40;99.90
24164;DHT22;12319;49.204;8.116;2022-10-16T01:00:17;17.30;99.90
24164;DHT22;12319;49.204;8.116;2022-10-16T01:02:43;17.40;99.90
24164;DHT22;12319;49.204;8.116;2022-10-16T01:05:09;17.40;99.90
24164;DHT22;12319;49.204;8.116;2022-10-16T01:08:13;17.30;99.90
24164;DHT22;12319;49.204;8.116;2022-10-16T01:10:45;17.40;99.90
24164;DHT22;12319;49.204;8.116;2022-10-16T01:13:22;17.40;99.90
24164;DHT22;12319;49.204;8.116;2022-10-16T01:16:00;17.40;99.90
24164;DHT22;12319;49.204;8.116;2022-10-16T01:21:03;17.40;99.90
24164;DHT22;12319;49.204;8.116;2022-10-16T01:31:31;17.30;99.90
24164;DHT22;12319;49.204;8.116;2022-10-16T01:34:02;17.30;99.90
24164;DHT22;12319;49.204;8.116;2022-10-16T01:36:37;17.30;99.90
24164;DHT22;12319;49.204;8.116;2022-10-16T01:39:06;17.30;99.90
24164;DHT22;12319;49.204;8.116;2022-10-16T01:41:36;17.30;99.90
24164;DHT22;12319;49.204;8.116;2022-10-16T01:44:33;17.70;99.90
24164;DHT22;12319;49.204;8.116;2022-10-16T01:47:00;17.30;99.90
24164;DHT22;12319;49.204;8.116;2022-10-16T01:49:29;17.20;99.90
24164;DHT22;12319;49.204;8.116;2022-10-16T01:51:59;17.20;99.90
24164;DHT22;12319;49.204;8.116;2022-10-16T01:54:27;17.20;99.90
24164;DHT22;12319;49.204;8.116;2022-10-16T01:56:55;17.30;99.90
24164;DHT22;12319;49.204;8.116;2022-10-16T01:59:23;17.20;99.90
24164;DHT22;12319;49.204;8.116;2022-10-16T02:01:54;17.20;99.90
24164;DHT22;12319;49.204;8.116;2022-10-16T02:04:26;17.30;99.90
24164;DHT22;12319;49.204;8.116;2022-10-16T02:06:53;17.20;99.90
24164;DHT22;12319;49.204;8.116;2022-10-16T02:09:20;17.30;99.90
24164;DHT22;12319;49.204;8.116;2022-10-16T02:11:45;17.20;99.90
24164;DHT22;12319;49.204;8.116;2022-10-16T02:14:11;17.40;99.90
24164;DHT22;12319;49.204;8.116;2022-10-16T02:16:47;17.20;99.90
24164;DHT22;12319;49.204;8.116;2022-10-16T02:19:14;17.20;99.90
24164;DHT22;12319;49.204;8.116;2022-10-16T02:22:04;17.10;99.90
24164;DHT22;12319;49.204;8.116;2022-10-16T02:30:19;17.20;99.90
24164;DHT22;12319;49.204;8.116;2022-10-16T02:32:48;17.20;99.90
24164;DHT22;12319;49.204;8.116;2022-10-16T02:35:17;17.20;99.90
24164;DHT22;12319;49.204;8.116;2022-10-16T02:37:44;17.20;99.90
24164;DHT22;12319;49.204;8.116;2022-10-16T02:40:11;17.20;99.90
24164;DHT22;12319;49.204;8.116;2022-10-16T02:42:39;17.20;99.90
24164;DHT22;12319;49.204;8.116;2022-10-16T02:45:10;17.20;99.90
24164;DHT22;12319;49.204;8.116;2022-10-16T02:47:36;17.20;99.90
24164;DHT22;12319;49.204;8.116;2022-10-16T02:50:02;17.20;99.90
24164;DHT22;12319;49.204;8.116;2022-10-16T02:52:27;17.20;99.90
24164;DHT22;12319;49.204;8.116;2022-10-16T02:54:53;17.20;99.90
24164;DHT22;12319;49.204;8.116;2022-10-16T02:57:19;17.20;99.90
24164;DHT22;12319;49.204;8.116;2022-10-16T02:59:44;17.20;99.90
24164;DHT22;12319;49.204;8.116;2022-10-16T03:02:10;17.20;99.90
24164;DHT22;12319;49.204;8.116;2022-10-16T03:04:36;17.20;99.90
24164;DHT22;12319;49.204;8.116;2022-10-16T03:07:02;17.20;99.90
24164;DHT22;12319;49.204;8.116;2022-10-16T03:09:27;17.20;99.90
24164;DHT22;12319;49.204;8.116;2022-10-16T03:11:53;17.20;99.90
24164;DHT22;12319;49.204;8.116;2022-10-16T03:14:18;17.20;99.90
24164;DHT22;12319;49.204;8.116;2022-10-16T03:16:44;17.20;99.90
24164;DHT22;12319;49.204;8.116;2022-10-16T03:19:09;17.20;99.90
24164;DHT22;12319;49.204;8.116;2022-10-16T03:21:35;17.30;99.90
24164;DHT22;12319;49.204;8.116;2022-10-16T03:24:01;17.30;99.90
24164;DHT22;12319;49.204;8.116;2022-10-16T03:26:26;17.30;99.90
24164;DHT22;12319;49.204;8.116;2022-10-16T03:28:52;17.30;99.90
24164;DHT22;12319;49.204;8.116;2022-10-16T03:31:17;17.30;99.90
24164;DHT22;12319;49.204;8.116;2022-10-16T03:33:43;17.30;99.90
24164;DHT22;12319;49.204;8.116;2022-10-16T03:36:08;17.30;99.90
24164;DHT22;12319;49.204;8.116;2022-10-16T03:38:34;17.30;99.90
24164;DHT22;12319;49.204;8.116;2022-10-16T03:40:59;17.30;99.90
24164;DHT22;12319;49.204;8.116;2022-10-16T03:43:25;17.30;99.90
24164;DHT22;12319;49.204;8.116;2022-10-16T03:45:51;17.30;99.90
24164;DHT22;12319;49.204;8.116;2022-10-16T03:48:17;17.40;99.90
24164;DHT22;12319;49.204;8.116;2022-10-16T03:50:43;17.30;99.90
24164;DHT22;12319;49.204;8.116;2022-10-16T03:53:08;17.20;99.90
24164;DHT22;12319;49.204;8.116;2022-10-16T03:55:34;17.30;99.90
24164;DHT22;12319;49.204;8.116;2022-10-16T03:58:00;17.30;99.90
24164;DHT22;12319;49.204;8.116;2022-10-16T04:00:26;17.30;99.90
24164;DHT22;12319;49.204;8.116;2022-10-16T04:02:51;17.20;99.90
24164;DHT22;12319;49.204;8.116;2022-10-16T04:05:17;17.30;99.90
24164;DHT22;12319;49.204;8.116;2022-10-16T04:07:43;17.20;99.90
24164;DHT22;12319;49.204;8.116;2022-10-16T04:10:08;17.20;99.90
24164;DHT22;12319;49.204;8.116;2022-10-16T04:12:34;17.20;99.90
24164;DHT22;12319;49.204;8.116;2022-10-16T04:15:00;17.20;99.90
24164;DHT22;12319;49.204;8.116;2022-10-16T04:17:25;17.20;99.90
24164;DHT22;12319;49.204;8.116;2022-10-16T04:19:51;17.20;99.90
24164;DHT22;12319;49.204;8.116;2022-10-16T04:22:16;17.10;99.90
24164;DHT22;12319;49.204;8.116;2022-10-16T04:24:42;17.20;99.90
24164;DHT22;12319;49.204;8.116;2022-10-16T04:27:07;17.20;99.90
24164;DHT22;12319;49.204;8.116;2022-10-16T04:29:33;17.30;99.90
24164;DHT22;12319;49.204;8.116;2022-10-16T04:31:58;17.20;99.90
24164;DHT22;12319;49.204;8.116;2022-10-16T04:34:24;17.20;99.90
24164;DHT22;12319;49.204;8.116;2022-10-16T04:36:50;17.10;99.90
24164;DHT22;12319;49.204;8.116;2022-10-16T04:39:16;17.10;99.90
24164;DHT22;12319;49.204;8.116;2022-10-16T04:41:41;17.10;99.90
24164;DHT22;12319;49.204;8.116;2022-10-16T04:44:07;17.10;99.90
24164;DHT22;12319;49.204;8.116;2022-10-16T04:46:33;17.10;99.90
24164;DHT22;12319;49.204;8.116;2022-10-16T04:48:59;17.10;99.90
24164;DHT22;12319;49.204;8.116;2022-10-16T04:51:25;17.00;99.90
24164;DHT22;12319;49.204;8.116;2022-10-16T04:53:51;17.00;99.90
24164;DHT22;12319;49.204;8.116;2022-10-16T04:56:17;17.00;99.90
24164;DHT22;12319;49.204;8.116;2022-10-16T04:58:42;17.10;99.90
24164;DHT22;12319;49.204;8.116;2022-10-16T05:01:08;17.00;99.90
24164;DHT22;12319;49.204;8.116;2022-10-16T05:03:33;17.00;99.90
24164;DHT22;12319;49.204;8.116;2022-10-16T05:05:59;17.00;99.90
24164;DHT22;12319;49.204;8.116;2022-10-16T05:08:24;17.00;99.90
24164;DHT22;12319;49.204;8.116;2022-10-16T05:10:50;17.00;99.90
24164;DHT22;12319;49.204;8.116;2022-10-16T05:13:16;17.00;99.90
24164;DHT22;12319;49.204;8.116;2022-10-16T05:15:41;16.90;99.90
24164;DHT22;12319;49.204;8.116;2022-10-16T05:18:08;16.90;99.90
24164;DHT22;12319;49.204;8.116;2022-10-16T05:20:33;16.90;99.90
24164;DHT22;12319;49.204;8.116;2022-10-16T05:22:59;16.90;99.90
24164;DHT22;12319;49.204;8.116;2022-10-16T05:25:25;16.90;99.90
24164;DHT22;12319;49.204;8.116;2022-10-16T05:27:50;16.90;99.90
24164;DHT22;12319;49.204;8.116;2022-10-16T05:30:17;16.90;99.90
24164;DHT22;12319;49.204;8.116;2022-10-16T05:32:47;16.90;99.90
24164;DHT22;12319;49.204;8.116;2022-10-16T05:35:13;16.90;99.90
24164;DHT22;12319;49.204;8.116;2022-10-16T05:37:38;16.90;99.90
24164;DHT22;12319;49.204;8.116;2022-10-16T05:40:04;17.00;99.90
24164;DHT22;12319;49.204;8.116;2022-10-16T05:42:30;16.90;99.90
24164;DHT22;12319;49.204;8.116;2022-10-16T05:44:55;16.90;99.90
24164;DHT22;12319;49.204;8.116;2022-10-16T05:47:21;16.90;99.90
24164;DHT22;12319;49.204;8.116;2022-10-16T05:49:46;16.90;99.90
24164;DHT22;12319;49.204;8.116;2022-10-16T05:52:12;16.90;99.90
24164;DHT22;12319;49.204;8.116;2022-10-16T05:54:38;16.90;99.90
24164;DHT22;12319;49.204;8.116;2022-10-16T05:57:03;16.90;99.90
24164;DHT22;12319;49.204;8.116;2022-10-16T05:59:31;16.90;99.90
24164;DHT22;12319;49.204;8.116;2022-10-16T06:01:56;16.90;99.90
24164;DHT22;12319;49.204;8.116;2022-10-16T06:04:22;16.90;99.90
24164;DHT22;12319;49.204;8.116;2022-10-16T06:06:48;16.90;99.90
24164;DHT22;12319;49.204;8.116;2022-10-16T06:09:13;16.90;99.90
24164;DHT22;12319;49.204;8.116;2022-10-16T06:11:39;16.90;99.90
24164;DHT22;12319;49.204;8.116;2022-10-16T06:14:04;16.90;99.90
24164;DHT22;12319;49.204;8.116;2022-10-16T06:16:33;16.90;99.90
24164;DHT22;12319;49.204;8.116;2022-10-16T06:18:59;16.90;99.90
24164;DHT22;12319;49.204;8.116;2022-10-16T06:21:26;16.90;99.90
24164;DHT22;12319;49.204;8.116;2022-10-16T06:23:53;16.90;99.90
24164;DHT22;12319;49.204;8.116;2022-10-16T06:26:22;16.90;99.90
24164;DHT22;12319;49.204;8.116;2022-10-16T06:28:48;17.00;99.90
24164;DHT22;12319;49.204;8.116;2022-10-16T06:31:15;17.00;99.90
24164;DHT22;12319;49.204;8.116;2022-10-16T06:33:41;17.00;99.90
24164;DHT22;12319;49.204;8.116;2022-10-16T06:36:09;17.00;99.90
24164;DHT22;12319;49.204;8.116;2022-10-16T06:38:36;17.00;99.90
24164;DHT22;12319;49.204;8.116;2022-10-16T06:41:02;17.00;99.90
24164;DHT22;12319;49.204;8.116;2022-10-16T06:43:31;17.10;99.90
24164;DHT22;12319;49.204;8.116;2022-10-16T06:46:01;17.10;99.90
24164;DHT22;12319;49.204;8.116;2022-10-16T06:48:28;17.10;99.90
24164;DHT22;12319;49.204;8.116;2022-10-16T06:51:02;17.10;99.90
24164;DHT22;12319;49.204;8.116;2022-10-16T06:53:33;17.10;99.90
24164;DHT22;12319;49.204;8.116;2022-10-16T06:56:07;17.20;99.90
24164;DHT22;12319;49.204;8.116;2022-10-16T06:58:32;17.30;99.90
24164;DHT22;12319;49.204;8.116;2022-10-16T07:00:58;17.20;99.90
24164;DHT22;12319;49.204;8.116;2022-10-16T07:03:23;17.20;99.90
24164;DHT22;12319;49.204;8.116;2022-10-16T07:05:49;17.30;99.90
24164;DHT22;12319;49.204;8.116;2022-10-16T07:08:15;17.30;99.90
24164;DHT22;12319;49.204;8.116;2022-10-16T07:10:40;17.40;99.90
24164;DHT22;12319;49.204;8.116;2022-10-16T07:13:06;17.40;99.90
24164;DHT22;12319;49.204;8.116;2022-10-16T07:15:33;17.40;99.90
24164;DHT22;12319;49.204;8.116;2022-10-16T07:17:59;17.60;99.90
24164;DHT22;12319;49.204;8.116;2022-10-16T07:20:25;17.60;99.90
24164;DHT22;12319;49.204;8.116;2022-10-16T07:22:51;17.70;99.90
24164;DHT22;12319;49.204;8.116;2022-10-16T07:25:17;17.80;99.90
24164;DHT22;12319;49.204;8.116;2022-10-16T07:27:42;17.80;99.90
24164;DHT22;12319;49.204;8.116;2022-10-16T07:30:08;17.80;99.90
24164;DHT22;12319;49.204;8.116;2022-10-16T07:32:34;17.90;99.90
24164;DHT22;12319;49.204;8.116;2022-10-16T07:34:59;17.90;99.90
24164;DHT22;12319;49.204;8.116;2022-10-16T07:37:25;18.00;99.90
24164;DHT22;12319;49.204;8.116;2022-10-16T07:39:50;18.10;99.90
24164;DHT22;12319;49.204;8.116;2022-10-16T07:42:16;18.20;99.90
24164;DHT22;12319;49.204;8.116;2022-10-16T07:44:41;18.40;99.90
24164;DHT22;12319;49.204;8.116;2022-10-16T07:47:07;18.50;99.90
24164;DHT22;12319;49.204;8.116;2022-10-16T07:49:32;18.50;99.90
24164;DHT22;12319;49.204;8.116;2022-10-16T07:51:58;18.60;99.90
24164;DHT22;12319;49.204;8.116;2022-10-16T07:54:23;18.70;99.90
24164;DHT22;12319;49.204;8.116;2022-10-16T07:56:49;18.60;99.90
24164;DHT22;12319;49.204;8.116;2022-10-16T07:59:15;18.60;99.90
24164;DHT22;12319;49.204;8.116;2022-10-16T08:01:40;18.50;99.90
24164;DHT22;12319;49.204;8.116;2022-10-16T08:04:08;18.60;99.90
24164;DHT22;12319;49.204;8.116;2022-10-16T08:06:39;18.60;99.90
24164;DHT22;12319;49.204;8.116;2022-10-16T08:09:05;18.60;99.90
24164;DHT22;12319;49.204;8.116;2022-10-16T08:11:32;18.70;99.90
24164;DHT22;12319;49.204;8.116;2022-10-16T08:13:58;18.70;99.90
24164;DHT22;12319;49.204;8.116;2022-10-16T08:16:23;18.80;99.90
24164;DHT22;12319;49.204;8.116;2022-10-16T08:18:49;19.00;99.90
24164;DHT22;12319;49.204;8.116;2022-10-16T08:21:18;19.50;99.90
24164;DHT22;12319;49.204;8.116;2022-10-16T08:23:44;20.30;99.90
24164;DHT22;12319;49.204;8.116;2022-10-16T08:26:11;21.40;99.90
24164;DHT22;12319;49.204;8.116;2022-10-16T08:28:37;22.30;99.90
24164;DHT22;12319;49.204;8.116;2022-10-16T08:31:11;23.00;99.90
24164;DHT22;12319;49.204;8.116;2022-10-16T08:33:38;23.10;99.50
24164;DHT22;12319;49.204;8.116;2022-10-16T08:36:05;22.90;99.30
24164;DHT22;12319;49.204;8.116;2022-10-16T08:38:32;22.50;98.90
24164;DHT22;12319;49.204;8.116;2022-10-16T08:41:10;22.20;98.90
24164;DHT22;12319;49.204;8.116;2022-10-16T08:47:26;21.30;98.30
24164;DHT22;12319;49.204;8.116;2022-10-16T08:49:58;21.00;98.90
24164;DHT22;12319;49.204;8.116;2022-10-16T08:52:32;21.00;99.80
24164;DHT22;12319;49.204;8.116;2022-10-16T08:54:59;20.80;99.90
24164;DHT22;12319;49.204;8.116;2022-10-16T08:57:26;20.70;99.90
24164;DHT22;12319;49.204;8.116;2022-10-16T08:59:52;20.60;99.90
24164;DHT22;12319;49.204;8.116;2022-10-16T09:02:32;20.70;99.90
24164;DHT22;12319;49.204;8.116;2022-10-16T09:08:07;21.40;99.90
24164;DHT22;12319;49.204;8.116;2022-10-16T09:10:50;22.30;99.90
24164;DHT22;12319;49.204;8.116;2022-10-16T09:13:22;24.20;99.90
24164;DHT22;12319;49.204;8.116;2022-10-16T09:23:30;29.50;90.90
24164;DHT22;12319;49.204;8.116;2022-10-16T09:25:58;30.30;90.70
24164;DHT22;12319;49.204;8.116;2022-10-16T09:28:25;31.20;85.80
24164;DHT22;12319;49.204;8.116;2022-10-16T09:30:51;31.70;81.30
24164;DHT22;12319;49.204;8.116;2022-10-16T09:33:19;31.40;77.60
24164;DHT22;12319;49.204;8.116;2022-10-16T09:35:53;30.90;75.80
24164;DHT22;12319;49.204;8.116;2022-10-16T09:40:48;29.60;72.90
24164;DHT22;12319;49.204;8.116;2022-10-16T09:43:38;29.00;75.00
24164;DHT22;12319;49.204;8.116;2022-10-16T09:46:07;28.40;72.80
24164;DHT22;12319;49.204;8.116;2022-10-16T09:48:49;27.90;75.40
24164;DHT22;12319;49.204;8.116;2022-10-16T09:53:57;27.20;74.70
24164;DHT22;12319;49.204;8.116;2022-10-16T09:56:32;27.00;76.30
24164;DHT22;12319;49.204;8.116;2022-10-16T09:59:01;26.80;75.20
24164;DHT22;12319;49.204;8.116;2022-10-16T10:01:31;26.70;76.10
24164;DHT22;12319;49.204;8.116;2022-10-16T10:03:57;26.50;75.90
24164;DHT22;12319;49.204;8.116;2022-10-16T10:06:51;26.40;76.10
24164;DHT22;12319;49.204;8.116;2022-10-16T10:09:24;26.30;75.50
24164;DHT22;12319;49.204;8.116;2022-10-16T10:11:57;26.20;75.00
24164;DHT22;12319;49.204;8.116;2022-10-16T10:19:51;25.60;76.30
24164;DHT22;12319;49.204;8.116;2022-10-16T10:22:40;25.50;75.40
24164;DHT22;12319;49.204;8.116;2022-10-16T10:30:27;25.20;75.10
24164;DHT22;12319;49.204;8.116;2022-10-16T10:40:56;25.00;76.60
24164;DHT22;12319;49.204;8.116;2022-10-16T10:43:45;24.90;76.20
24164;DHT22;12319;49.204;8.116;2022-10-16T10:46:23;24.80;76.10
24164;DHT22;12319;49.204;8.116;2022-10-16T10:51:44;24.60;76.50
24164;DHT22;12319;49.204;8.116;2022-10-16T11:08:43;24.20;77.00
24164;DHT22;12319;49.204;8.116;2022-10-16T11:13:31;24.10;77.60
24164;DHT22;12319;49.204;8.116;2022-10-16T11:16:00;24.10;78.00
24164;DHT22;12319;49.204;8.116;2022-10-16T11:18:49;24.00;78.70
24164;DHT22;12319;49.204;8.116;2022-10-16T11:21:18;24.00;78.60
24164;DHT22;12319;49.204;8.116;2022-10-16T11:24:00;24.00;78.60
24164;DHT22;12319;49.204;8.116;2022-10-16T11:26:33;23.90;78.50
24164;DHT22;12319;49.204;8.116;2022-10-16T11:29:01;23.90;78.50
24164;DHT22;12319;49.204;8.116;2022-10-16T11:31:49;23.80;78.90
24164;DHT22;12319;49.204;8.116;2022-10-16T11:37:14;23.80;78.60
24164;DHT22;12319;49.204;8.116;2022-10-16T11:39:43;23.80;78.60
24164;DHT22;12319;49.204;8.116;2022-10-16T11:42:18;23.80;78.90
24164;DHT22;12319;49.204;8.116;2022-10-16T11:45:08;23.80;78.80
24164;DHT22;12319;49.204;8.116;2022-10-16T11:47:51;23.80;79.10
24164;DHT22;12319;49.204;8.116;2022-10-16T11:50:57;23.90;79.30
24164;DHT22;12319;49.204;8.116;2022-10-16T11:53:29;23.90;79.70
24164;DHT22;12319;49.204;8.116;2022-10-16T11:55:58;24.00;80.30
24164;DHT22;12319;49.204;8.116;2022-10-16T11:58:35;24.40;80.60
24164;DHT22;12319;49.204;8.116;2022-10-16T12:01:25;24.10;80.10
24164;DHT22;12319;49.204;8.116;2022-10-16T12:04:26;24.10;80.10
24164;DHT22;12319;49.204;8.116;2022-10-16T12:07:22;24.10;79.70
24164;DHT22;12319;49.204;8.116;2022-10-16T12:09:50;24.10;79.60
24164;DHT22;12319;49.204;8.116;2022-10-16T12:12:26;24.20;79.90
24164;DHT22;12319;49.204;8.116;2022-10-16T12:17:48;24.40;79.00
24164;DHT22;12319;49.204;8.116;2022-10-16T12:22:52;24.30;78.60
24164;DHT22;12319;49.204;8.116;2022-10-16T12:30:40;24.00;79.00
24164;DHT22;12319;49.204;8.116;2022-10-16T12:33:20;24.00;79.20
24164;DHT22;12319;49.204;8.116;2022-10-16T12:35:46;23.90;79.00
24164;DHT22;12319;49.204;8.116;2022-10-16T12:38:37;23.80;79.60
24164;DHT22;12319;49.204;8.116;2022-10-16T12:41:06;23.70;79.30
24164;DHT22;12319;49.204;8.116;2022-10-16T12:46:18;23.50;80.50
24164;DHT22;12319;49.204;8.116;2022-10-16T12:48:45;23.50;80.10
24164;DHT22;12319;49.204;8.116;2022-10-16T12:51:35;23.40;80.30
24164;DHT22;12319;49.204;8.116;2022-10-16T12:54:04;23.30;80.30
24164;DHT22;12319;49.204;8.116;2022-10-16T13:02:06;23.10;80.80
24164;DHT22;12319;49.204;8.116;2022-10-16T13:04:45;22.90;81.00
24164;DHT22;12319;49.204;8.116;2022-10-16T13:07:26;22.80;81.20
24164;DHT22;12319;49.204;8.116;2022-10-16T13:12:58;22.60;81.60
24164;DHT22;12319;49.204;8.116;2022-10-16T13:18:22;22.40;81.90
24164;DHT22;12319;49.204;8.116;2022-10-16T13:24:25;22.20;82.30
24164;DHT22;12319;49.204;8.116;2022-10-16T13:29:45;22.20;82.40
24164;DHT22;12319;49.204;8.116;2022-10-16T13:32:17;22.10;82.40
24164;DHT22;12319;49.204;8.116;2022-10-16T13:34:46;22.10;82.60
24164;DHT22;12319;49.204;8.116;2022-10-16T13:37:23;22.10;82.90
24164;DHT22;12319;49.204;8.116;2022-10-16T13:39:49;22.10;83.30
24164;DHT22;12319;49.204;8.116;2022-10-16T13:42:28;21.90;83.30
24164;DHT22;12319;49.204;8.116;2022-10-16T13:44:55;21.90;83.70
24164;DHT22;12319;49.204;8.116;2022-10-16T13:50:00;21.80;84.20
24164;DHT22;12319;49.204;8.116;2022-10-16T13:52:26;21.90;84.50
24164;DHT22;12319;49.204;8.116;2022-10-16T13:54:51;21.80;84.60
24164;DHT22;12319;49.204;8.116;2022-10-16T13:57:17;21.80;84.80
24164;DHT22;12319;49.204;8.116;2022-10-16T13:59:43;21.80;84.90
24164;DHT22;12319;49.204;8.116;2022-10-16T14:02:30;21.70;85.10
24164;DHT22;12319;49.204;8.116;2022-10-16T14:04:57;21.70;85.60
24164;DHT22;12319;49.204;8.116;2022-10-16T14:07:29;21.70;85.70
24164;DHT22;12319;49.204;8.116;2022-10-16T14:09:55;21.70;86.10
24164;DHT22;12319;49.204;8.116;2022-10-16T14:12:22;21.60;86.20
24164;DHT22;12319;49.204;8.116;2022-10-16T14:14:52;21.70;86.60
24164;DHT22;12319;49.204;8.116;2022-10-16T14:17:25;21.80;87.00
24164;DHT22;12319;49.204;8.116;2022-10-16T14:19:53;21.70;87.10
24164;DHT22;12319;49.204;8.116;2022-10-16T14:22:40;21.80;87.20
24164;DHT22;12319;49.204;8.116;2022-10-16T14:27:44;21.90;87.80
24164;DHT22;12319;49.204;8.116;2022-10-16T14:30:16;22.00;87.60
24164;DHT22;12319;49.204;8.116;2022-10-16T14:32:53;22.10;87.10
24164;DHT22;12319;49.204;8.116;2022-10-16T14:35:39;22.10;86.90
24164;DHT22;12319;49.204;8.116;2022-10-16T14:38:06;22.20;86.90
24164;DHT22;12319;49.204;8.116;2022-10-16T14:40:37;22.20;86.90
24164;DHT22;12319;49.204;8.116;2022-10-16T14:43:04;22.10;86.60
24164;DHT22;12319;49.204;8.116;2022-10-16T14:45:32;22.20;86.60
24164;DHT22;12319;49.204;8.116;2022-10-16T14:48:04;22.10;86.40
24164;DHT22;12319;49.204;8.116;2022-10-16T14:50:31;22.20;86.80
24164;DHT22;12319;49.204;8.116;2022-10-16T14:52:56;22.20;86.90
24164;DHT22;12319;49.204;8.116;2022-10-16T14:55:23;22.10;86.70
24164;DHT22;12319;49.204;8.116;2022-10-16T14:57:49;22.20;86.90
24164;DHT22;12319;49.204;8.116;2022-10-16T15:00:18;22.20;86.90
24164;DHT22;12319;49.204;8.116;2022-10-16T15:02:45;22.10;87.00
24164;DHT22;12319;49.204;8.116;2022-10-16T15:05:21;22.20;87.20
24164;DHT22;12319;49.204;8.116;2022-10-16T15:07:48;22.20;87.40
24164;DHT22;12319;49.204;8.116;2022-10-16T15:10:15;22.10;87.40
24164;DHT22;12319;49.204;8.116;2022-10-16T15:12:41;22.00;87.20
24164;DHT22;12319;49.204;8.116;2022-10-16T15:17:52;22.10;87.40
24164;DHT22;12319;49.204;8.116;2022-10-16T15:20:19;22.10;87.50
24164;DHT22;12319;49.204;8.116;2022-10-16T15:22:45;22.00;87.60
24164;DHT22;12319;49.204;8.116;2022-10-16T15:27:57;22.00;88.00
24164;DHT22;12319;49.204;8.116;2022-10-16T15:30:23;22.00;88.10
24164;DHT22;12319;49.204;8.116;2022-10-16T15:32:48;22.00;88.00
24164;DHT22;12319;49.204;8.116;2022-10-16T15:35:14;22.00;88.10
24164;DHT22;12319;49.204;8.116;2022-10-16T15:37:39;22.00;88.10
24164;DHT22;12319;49.204;8.116;2022-10-16T15:40:05;21.90;88.10
24164;DHT22;12319;49.204;8.116;2022-10-16T15:42:31;21.90;88.00
24164;DHT22;12319;49.204;8.116;2022-10-16T15:44:56;22.00;88.20
24164;DHT22;12319;49.204;8.116;2022-10-16T15:47:22;21.90;88.00
24164;DHT22;12319;49.204;8.116;2022-10-16T15:49:47;21.80;87.90
24164;DHT22;12319;49.204;8.116;2022-10-16T15:52:13;21.90;88.10
24164;DHT22;12319;49.204;8.116;2022-10-16T15:54:38;21.80;88.10
24164;DHT22;12319;49.204;8.116;2022-10-16T15:57:04;22.00;88.20
24164;DHT22;12319;49.204;8.116;2022-10-16T15:59:29;21.70;88.20
24164;DHT22;12319;49.204;8.116;2022-10-16T16:01:55;21.60;87.90
24164;DHT22;12319;49.204;8.116;2022-10-16T16:04:21;21.60;87.80
24164;DHT22;12319;49.204;8.116;2022-10-16T16:06:46;21.50;87.90
24164;DHT22;12319;49.204;8.116;2022-10-16T16:09:13;21.60;88.20
24164;DHT22;12319;49.204;8.116;2022-10-16T16:11:39;21.30;88.20
24164;DHT22;12319;49.204;8.116;2022-10-16T16:14:11;21.20;88.40
24164;DHT22;12319;49.204;8.116;2022-10-16T16:16:38;21.20;88.70
24164;DHT22;12319;49.204;8.116;2022-10-16T16:19:04;21.10;88.80
24164;DHT22;12319;49.204;8.116;2022-10-16T16:21:32;21.10;89.10
24164;DHT22;12319;49.204;8.116;2022-10-16T16:23:57;20.90;89.20
24164;DHT22;12319;49.204;8.116;2022-10-16T16:26:30;21.10;89.60
24164;DHT22;12319;49.204;8.116;2022-10-16T16:29:02;20.80;89.80
24164;DHT22;12319;49.204;8.116;2022-10-16T16:31:29;20.70;89.80
24164;DHT22;12319;49.204;8.116;2022-10-16T16:33:56;20.60;90.10
24164;DHT22;12319;49.204;8.116;2022-10-16T16:36:22;20.60;90.30
24164;DHT22;12319;49.204;8.116;2022-10-16T16:38:48;20.50;90.40
24164;DHT22;12319;49.204;8.116;2022-10-16T16:41:19;20.30;90.50
24164;DHT22;12319;49.204;8.116;2022-10-16T16:43:46;20.30;90.90
24164;DHT22;12319;49.204;8.116;2022-10-16T16:46:13;20.20;91.00
24164;DHT22;12319;49.204;8.116;2022-10-16T16:48:39;20.10;91.10
24164;DHT22;12319;49.204;8.116;2022-10-16T16:51:10;20.10;91.40
24164;DHT22;12319;49.204;8.116;2022-10-16T16:53:40;20.00;91.70
24164;DHT22;12319;49.204;8.116;2022-10-16T16:56:06;19.90;91.80
24164;DHT22;12319;49.204;8.116;2022-10-16T16:58:32;19.80;92.00
24164;DHT22;12319;49.204;8.116;2022-10-16T17:00:59;19.70;92.10
24164;DHT22;12319;49.204;8.116;2022-10-16T17:03:30;19.70;92.40
24164;DHT22;12319;49.204;8.116;2022-10-16T17:06:04;19.60;92.50
24164;DHT22;12319;49.204;8.116;2022-10-16T17:08:31;19.50;93.00
24164;DHT22;12319;49.204;8.116;2022-10-16T17:10:56;19.40;93.00
24164;DHT22;12319;49.204;8.116;2022-10-16T17:13:24;19.40;93.00
24164;DHT22;12319;49.204;8.116;2022-10-16T17:15:50;19.30;93.30
24164;DHT22;12319;49.204;8.116;2022-10-16T17:18:16;19.20;93.40
24164;DHT22;12319;49.204;8.116;2022-10-16T17:20:42;19.20;93.50
24164;DHT22;12319;49.204;8.116;2022-10-16T17:23:12;19.10;93.80
24164;DHT22;12319;49.204;8.116;2022-10-16T17:25:38;19.00;94.10
24164;DHT22;12319;49.204;8.116;2022-10-16T17:28:05;19.00;94.10
24164;DHT22;12319;49.204;8.116;2022-10-16T17:30:31;18.90;94.20
24164;DHT22;12319;49.204;8.116;2022-10-16T17:32:58;18.90;94.40
24164;DHT22;12319;49.204;8.116;2022-10-16T17:35:24;18.90;94.60
24164;DHT22;12319;49.204;8.116;2022-10-16T17:37:51;18.80;94.70
24164;DHT22;12319;49.204;8.116;2022-10-16T17:40:17;18.70;94.90